This is the latest recevied weather packets stored in our database for station/object W2CJS. If no packets are shown the sender has not sent any weather packets the latest 10 day(s).
| Time | Temp. | Humidity | Pressure | Rain* | Wind** | Luminosity | Snow |
|---|---|---|---|---|---|---|---|
| 1777264803 | 2.22° C | 81% | 1021.8 hPa | 0 mm | - | - | - |
| 1777262404 | 3.33° C | 79% | 1021.5 hPa | 0 mm | - | - | - |
| 1777261803 | 3.33° C | 78% | 1021.5 hPa | 0 mm | - | - | - |
| 1777261224 | 3.89° C | 77% | 1021.6 hPa | 0 mm | - | - | - |
| 1777260603 | 3.89° C | 77% | 1021.5 hPa | 0 mm | - | - | - |
| 1777258203 | 5° C | 73% | 1021.4 hPa | 0 mm | - | - | - |
| 1777252203 | 8.33° C | 65% | 1020.7 hPa | 0 mm | - | - | - |
| 1777246204 | 13.89° C | 45% | 1019.2 hPa | 0 mm | - | - | - |
| 1777243224 | 16.11° C | 37% | 1018.8 hPa | 0 mm | - | - | - |
| 1777242603 | 16.67° C | 34% | 1018.8 hPa | 0 mm | - | - | - |
| 1777241403 | 16.67° C | 35% | 1018.6 hPa | 0 mm | - | - | - |
| 1777236003 | 16.67° C | 31% | 1018 hPa | 0 mm | - | - | - |
| 1777232403 | 16.67° C | 34% | 1018.1 hPa | 0 mm | - | - | - |
| 1777231824 | 17.22° C | 33% | 1018.1 hPa | 0 mm | - | - | - |
| 1777225803 | 16.11° C | 40% | 1018.6 hPa | 0 mm | - | - | - |
| 1777224603 | 16.11° C | 34% | 1018.9 hPa | 0 mm | - | - | - |
| 1777220404 | 15° C | 40% | 1019.3 hPa | 0 mm | - | - | - |
| 1777215004 | 12.22° C | 48% | 1019.6 hPa | 0 mm | - | - | - |
| 1777212603 | 9.44° C | 66% | 1019.5 hPa | 0 mm | - | - | - |
| 1777209004 | 6.67° C | 79% | 1019.4 hPa | 0 mm | - | - | - |
| 1777207203 | 5° C | 88% | 1019.4 hPa | 0 mm | - | - | - |
| 1777206003 | 3.89° C | 93% | 1019.5 hPa | 0 mm | - | - | - |
| 1777204803 | 1.67° C | 93% | 1019.3 hPa | 0 mm | - | - | - |
| 1777204203 | 1.11° C | 93% | 1019.2 hPa | 0 mm | - | - | - |
| 1777201824 | -0.56° C | 91% | 1018.8 hPa | 0 mm | - | - | - |
* Rain latest hour (hover to see other rain measurements)
** Current wind speed in m/s (hover to see current wind gust speed)